sensor_id;sensor_type;location;lat;lon;timestamp;pressure;altitude;pressure_sealevel;temperature;humidity
46045;BME280;31781;54.094;13.428;2024-03-02T00:03:38;100799.13;;;6.44;80.03
46045;BME280;31781;54.094;13.428;2024-03-02T00:09:40;100796.09;;;6.47;79.86
46045;BME280;31781;54.094;13.428;2024-03-02T00:15:46;100797.38;;;6.51;80.47
46045;BME280;31781;54.094;13.428;2024-03-02T00:21:49;100791.66;;;6.54;79.81
46045;BME280;31781;54.094;13.428;2024-03-02T00:27:50;100794.16;;;6.55;80.06
46045;BME280;31781;54.094;13.428;2024-03-02T00:33:53;100793.97;;;6.57;79.87
46045;BME280;31781;54.094;13.428;2024-03-02T00:39:56;100802.72;;;6.59;79.32
46045;BME280;31781;54.094;13.428;2024-03-02T00:45:58;100791.06;;;6.58;79.18
46045;BME280;31781;54.094;13.428;2024-03-02T00:52:00;100796.47;;;6.58;79.38
46045;BME280;31781;54.094;13.428;2024-03-02T00:58:03;100795.47;;;6.59;78.94
46045;BME280;31781;54.094;13.428;2024-03-02T01:04:05;100788.38;;;6.58;79.23
46045;BME280;31781;54.094;13.428;2024-03-02T01:10:07;100778.59;;;6.57;78.79
46045;BME280;31781;54.094;13.428;2024-03-02T01:16:11;100761.53;;;6.57;79.04
46045;BME280;31781;54.094;13.428;2024-03-02T01:22:12;100765.25;;;6.56;79.30
46045;BME280;31781;54.094;13.428;2024-03-02T01:28:14;100760.88;;;6.55;79.14
46045;BME280;31781;54.094;13.428;2024-03-02T01:34:17;100753.81;;;6.54;79.04
46045;BME280;31781;54.094;13.428;2024-03-02T01:40:19;100756.31;;;6.55;78.62
46045;BME280;31781;54.094;13.428;2024-03-02T01:46:20;100751.09;;;6.54;78.64
46045;BME280;31781;54.094;13.428;2024-03-02T01:52:23;100746.72;;;6.53;79.06
46045;BME280;31781;54.094;13.428;2024-03-02T01:58:25;100743.00;;;6.54;78.33
46045;BME280;31781;54.094;13.428;2024-03-02T02:04:27;100738.59;;;6.53;79.11
46045;BME280;31781;54.094;13.428;2024-03-02T02:10:30;100729.47;;;6.54;79.45
46045;BME280;31781;54.094;13.428;2024-03-02T02:16:32;100719.31;;;6.56;79.41
46045;BME280;31781;54.094;13.428;2024-03-02T02:22:34;100719.47;;;6.54;79.31
46045;BME280;31781;54.094;13.428;2024-03-02T02:28:36;100726.41;;;6.57;79.33
46045;BME280;31781;54.094;13.428;2024-03-02T02:34:38;100712.03;;;6.56;79.74
46045;BME280;31781;54.094;13.428;2024-03-02T02:40:41;100713.53;;;6.59;80.16
46045;BME280;31781;54.094;13.428;2024-03-02T02:46:42;100705.03;;;6.62;80.23
46045;BME280;31781;54.094;13.428;2024-03-02T02:52:44;100701.78;;;6.66;80.72
46045;BME280;31781;54.094;13.428;2024-03-02T02:58:47;100694.16;;;6.70;81.15
46045;BME280;31781;54.094;13.428;2024-03-02T03:04:49;100693.59;;;6.74;80.72
46045;BME280;31781;54.094;13.428;2024-03-02T03:10:51;100691.34;;;6.78;80.74
46045;BME280;31781;54.094;13.428;2024-03-02T03:16:54;100689.13;;;6.81;80.97
46045;BME280;31781;54.094;13.428;2024-03-02T03:22:55;100686.25;;;6.83;81.25
46045;BME280;31781;54.094;13.428;2024-03-02T03:28:57;100689.59;;;6.85;81.18
46045;BME280;31781;54.094;13.428;2024-03-02T03:35:00;100679.25;;;6.89;81.44
46045;BME280;31781;54.094;13.428;2024-03-02T03:41:02;100689.50;;;6.93;81.58
46045;BME280;31781;54.094;13.428;2024-03-02T03:47:04;100687.91;;;6.99;82.13
46045;BME280;31781;54.094;13.428;2024-03-02T03:53:08;100688.84;;;7.06;82.43
46045;BME280;31781;54.094;13.428;2024-03-02T03:59:10;100690.13;;;7.10;82.31
46045;BME280;31781;54.094;13.428;2024-03-02T04:05:13;100682.47;;;7.13;81.84
46045;BME280;31781;54.094;13.428;2024-03-02T04:11:16;100679.59;;;7.15;82.17
46045;BME280;31781;54.094;13.428;2024-03-02T04:17:18;100672.59;;;7.20;82.01
46045;BME280;31781;54.094;13.428;2024-03-02T04:23:20;100679.50;;;7.23;81.91
46045;BME280;31781;54.094;13.428;2024-03-02T04:29:24;100674.53;;;7.26;82.50
46045;BME280;31781;54.094;13.428;2024-03-02T04:35:25;100677.72;;;7.30;82.27
46045;BME280;31781;54.094;13.428;2024-03-02T04:41:27;100668.56;;;7.31;82.91
46045;BME280;31781;54.094;13.428;2024-03-02T04:47:31;100675.91;;;7.37;82.59
46045;BME280;31781;54.094;13.428;2024-03-02T04:53:33;100679.75;;;7.43;82.52
46045;BME280;31781;54.094;13.428;2024-03-02T04:59:35;100669.72;;;7.43;83.07
46045;BME280;31781;54.094;13.428;2024-03-02T05:05:38;100678.97;;;7.49;82.76
46045;BME280;31781;54.094;13.428;2024-03-02T05:11:40;100684.66;;;7.54;83.15
46045;BME280;31781;54.094;13.428;2024-03-02T05:17:42;100682.22;;;7.59;83.25
46045;BME280;31781;54.094;13.428;2024-03-02T05:23:45;100684.34;;;7.63;83.15
46045;BME280;31781;54.094;13.428;2024-03-02T05:29:47;100680.03;;;7.69;83.11
46045;BME280;31781;54.094;13.428;2024-03-02T05:35:48;100685.72;;;7.74;83.55
46045;BME280;31781;54.094;13.428;2024-03-02T05:41:52;100678.88;;;7.78;83.73
46045;BME280;31781;54.094;13.428;2024-03-02T05:47:53;100681.59;;;7.78;83.11
46045;BME280;31781;54.094;13.428;2024-03-02T05:53:55;100689.16;;;7.82;84.16
46045;BME280;31781;54.094;13.428;2024-03-02T05:59:58;100685.38;;;7.83;84.08
46045;BME280;31781;54.094;13.428;2024-03-02T06:06:00;100683.78;;;7.89;83.97
46045;BME280;31781;54.094;13.428;2024-03-02T06:12:03;100679.66;;;7.93;84.01
46045;BME280;31781;54.094;13.428;2024-03-02T06:18:06;100689.25;;;7.96;84.50
46045;BME280;31781;54.094;13.428;2024-03-02T06:24:08;100695.59;;;8.03;84.99
46045;BME280;31781;54.094;13.428;2024-03-02T06:30:11;100698.34;;;8.09;85.74
46045;BME280;31781;54.094;13.428;2024-03-02T06:36:14;100704.31;;;8.19;85.81
46045;BME280;31781;54.094;13.428;2024-03-02T06:42:15;100707.53;;;8.29;86.57
46045;BME280;31781;54.094;13.428;2024-03-02T06:48:17;100700.34;;;8.43;86.83
46045;BME280;31781;54.094;13.428;2024-03-02T06:54:20;100706.75;;;8.57;87.67
46045;BME280;31781;54.094;13.428;2024-03-02T07:00:22;100701.81;;;8.67;87.58
46045;BME280;31781;54.094;13.428;2024-03-02T07:06:24;100702.94;;;8.79;87.88
46045;BME280;31781;54.094;13.428;2024-03-02T07:12:27;100709.88;;;8.88;88.01
46045;BME280;31781;54.094;13.428;2024-03-02T07:18:29;100708.69;;;8.97;87.95
46045;BME280;31781;54.094;13.428;2024-03-02T07:24:30;100703.09;;;9.05;88.04
46045;BME280;31781;54.094;13.428;2024-03-02T07:30:33;100708.16;;;9.15;88.50
46045;BME280;31781;54.094;13.428;2024-03-02T07:36:35;100712.38;;;9.24;88.51
46045;BME280;31781;54.094;13.428;2024-03-02T07:42:37;100713.44;;;9.29;88.50
46045;BME280;31781;54.094;13.428;2024-03-02T07:48:42;100717.03;;;9.37;89.05
46045;BME280;31781;54.094;13.428;2024-03-02T07:54:43;100730.84;;;9.42;88.60
46045;BME280;31781;54.094;13.428;2024-03-02T08:00:46;100732.75;;;9.48;88.57
46045;BME280;31781;54.094;13.428;2024-03-02T08:06:49;100735.72;;;9.53;88.56
46045;BME280;31781;54.094;13.428;2024-03-02T08:12:50;100742.41;;;9.57;88.14
46045;BME280;31781;54.094;13.428;2024-03-02T08:18:52;100737.41;;;9.60;88.49
46045;BME280;31781;54.094;13.428;2024-03-02T08:24:56;100744.94;;;9.65;88.39
46045;BME280;31781;54.094;13.428;2024-03-02T08:30:58;100753.50;;;9.68;88.02
46045;BME280;31781;54.094;13.428;2024-03-02T08:37:00;100765.88;;;9.71;88.49
46045;BME280;31781;54.094;13.428;2024-03-02T08:43:03;100761.91;;;9.73;88.25
46045;BME280;31781;54.094;13.428;2024-03-02T08:49:06;100756.28;;;9.75;88.06
46045;BME280;31781;54.094;13.428;2024-03-02T08:55:08;100768.63;;;9.77;88.14
46045;BME280;31781;54.094;13.428;2024-03-02T09:01:11;100779.28;;;9.79;88.31
46045;BME280;31781;54.094;13.428;2024-03-02T09:07:13;100777.00;;;9.83;87.71
46045;BME280;31781;54.094;13.428;2024-03-02T09:13:15;100773.88;;;9.86;87.94
46045;BME280;31781;54.094;13.428;2024-03-02T09:19:18;100784.13;;;9.90;87.73
46045;BME280;31781;54.094;13.428;2024-03-02T09:25:20;100785.38;;;9.94;87.63
46045;BME280;31781;54.094;13.428;2024-03-02T09:31:22;100792.31;;;9.97;87.44
46045;BME280;31781;54.094;13.428;2024-03-02T09:37:25;100795.47;;;10.00;87.46
46045;BME280;31781;54.094;13.428;2024-03-02T09:43:26;100793.78;;;10.06;87.86
46045;BME280;31781;54.094;13.428;2024-03-02T09:49:28;100810.34;;;10.11;87.97
46045;BME280;31781;54.094;13.428;2024-03-02T09:55:31;100802.22;;;10.17;88.15
46045;BME280;31781;54.094;13.428;2024-03-02T10:01:33;100804.34;;;10.22;87.89
46045;BME280;31781;54.094;13.428;2024-03-02T10:07:35;100796.00;;;10.30;88.29
46045;BME280;31781;54.094;13.428;2024-03-02T10:13:38;100806.88;;;10.37;88.49
46045;BME280;31781;54.094;13.428;2024-03-02T10:19:40;100804.16;;;10.43;88.50
46045;BME280;31781;54.094;13.428;2024-03-02T10:25:42;100801.25;;;10.51;88.09
46045;BME280;31781;54.094;13.428;2024-03-02T10:32:02;100807.53;;;10.58;87.61
46045;BME280;31781;54.094;13.428;2024-03-02T10:38:04;100810.69;;;10.62;87.88
46045;BME280;31781;54.094;13.428;2024-03-02T10:44:07;100809.22;;;10.66;87.87
46045;BME280;31781;54.094;13.428;2024-03-02T10:50:11;100809.22;;;10.72;87.80
46045;BME280;31781;54.094;13.428;2024-03-02T10:56:16;100807.75;;;10.77;87.88
46045;BME280;31781;54.094;13.428;2024-03-02T11:02:23;100800.00;;;10.80;87.57
46045;BME280;31781;54.094;13.428;2024-03-02T11:08:28;100805.69;;;10.85;87.93
46045;BME280;31781;54.094;13.428;2024-03-02T11:14:31;100796.03;;;10.89;87.65
46045;BME280;31781;54.094;13.428;2024-03-02T11:20:35;100794.59;;;10.93;87.47
46045;BME280;31781;54.094;13.428;2024-03-02T11:26:39;100796.03;;;10.96;87.35
46045;BME280;31781;54.094;13.428;2024-03-02T11:32:41;100793.72;;;10.99;86.98
46045;BME280;31781;54.094;13.428;2024-03-02T11:38:43;100803.34;;;11.02;86.87
46045;BME280;31781;54.094;13.428;2024-03-02T11:44:47;100806.50;;;11.05;87.25
46045;BME280;31781;54.094;13.428;2024-03-02T11:50:50;100802.31;;;11.09;87.38
46045;BME280;31781;54.094;13.428;2024-03-02T11:56:52;100811.53;;;11.15;87.18
46045;BME280;31781;54.094;13.428;2024-03-02T12:03:01;100809.63;;;11.22;86.67
46045;BME280;31781;54.094;13.428;2024-03-02T12:09:03;100815.25;;;11.27;86.46
46045;BME280;31781;54.094;13.428;2024-03-02T12:15:05;100822.59;;;11.33;85.84
46045;BME280;31781;54.094;13.428;2024-03-02T12:21:09;100828.22;;;11.38;85.83
46045;BME280;31781;54.094;13.428;2024-03-02T12:27:11;100819.22;;;11.44;85.28
46045;BME280;31781;54.094;13.428;2024-03-02T12:33:13;100818.59;;;11.49;84.55
46045;BME280;31781;54.094;13.428;2024-03-02T12:39:17;100816.28;;;11.52;84.36
46045;BME280;31781;54.094;13.428;2024-03-02T12:45:19;100828.63;;;11.55;84.32
46045;BME280;31781;54.094;13.428;2024-03-02T12:51:20;100832.81;;;11.57;84.23
46045;BME280;31781;54.094;13.428;2024-03-02T12:57:25;100834.28;;;11.60;83.92
46045;BME280;31781;54.094;13.428;2024-03-02T13:03:29;100825.88;;;11.61;83.04
46045;BME280;31781;54.094;13.428;2024-03-02T13:09:31;100822.72;;;11.64;83.16
46045;BME280;31781;54.094;13.428;2024-03-02T13:15:34;100821.69;;;11.72;82.95
46045;BME280;31781;54.094;13.428;2024-03-02T13:21:36;100810.56;;;11.80;82.75
46045;BME280;31781;54.094;13.428;2024-03-02T13:27:38;100812.84;;;11.90;82.76
46045;BME280;31781;54.094;13.428;2024-03-02T13:33:41;100810.91;;;11.97;82.10
46045;BME280;31781;54.094;13.428;2024-03-02T13:39:43;100819.91;;;12.04;82.06
46045;BME280;31781;54.094;13.428;2024-03-02T13:45:45;100825.94;;;12.12;81.37
46045;BME280;31781;54.094;13.428;2024-03-02T13:51:48;100812.47;;;12.17;80.77
46045;BME280;31781;54.094;13.428;2024-03-02T13:57:50;100813.94;;;12.20;80.00
46045;BME280;31781;54.094;13.428;2024-03-02T14:03:51;100818.13;;;12.23;79.73
46045;BME280;31781;54.094;13.428;2024-03-02T14:09:55;100814.97;;;12.26;79.31
46045;BME280;31781;54.094;13.428;2024-03-02T14:15:56;100821.88;;;12.28;78.81
46045;BME280;31781;54.094;13.428;2024-03-02T14:21:58;100822.72;;;12.29;78.50
46045;BME280;31781;54.094;13.428;2024-03-02T14:28:02;100827.13;;;12.30;78.35
46045;BME280;31781;54.094;13.428;2024-03-02T14:34:24;100830.06;;;12.28;78.06
46045;BME280;31781;54.094;13.428;2024-03-02T14:40:25;100840.13;;;12.28;77.55
46045;BME280;31781;54.094;13.428;2024-03-02T14:46:29;100827.75;;;12.25;77.63
46045;BME280;31781;54.094;13.428;2024-03-02T14:52:31;100824.38;;;12.30;77.80
46045;BME280;31781;54.094;13.428;2024-03-02T14:58:33;100824.94;;;12.38;77.81
46045;BME280;31781;54.094;13.428;2024-03-02T15:04:36;100827.03;;;12.43;77.01
46045;BME280;31781;54.094;13.428;2024-03-02T15:10:37;100823.19;;;12.50;76.69
46045;BME280;31781;54.094;13.428;2024-03-02T15:16:39;100823.59;;;12.54;76.91
46045;BME280;31781;54.094;13.428;2024-03-02T15:22:43;100833.22;;;12.56;77.06
46045;BME280;31781;54.094;13.428;2024-03-02T15:28:44;100836.81;;;12.57;76.66
46045;BME280;31781;54.094;13.428;2024-03-02T15:34:46;100844.38;;;12.55;76.47
46045;BME280;31781;54.094;13.428;2024-03-02T15:40:49;100848.16;;;12.54;76.60
46045;BME280;31781;54.094;13.428;2024-03-02T15:46:51;100849.06;;;12.48;76.28
46045;BME280;31781;54.094;13.428;2024-03-02T15:52:53;100842.16;;;12.39;76.30
46045;BME280;31781;54.094;13.428;2024-03-02T15:59:01;100853.72;;;12.34;76.46
46045;BME280;31781;54.094;13.428;2024-03-02T16:05:03;100848.97;;;12.23;76.43
46045;BME280;31781;54.094;13.428;2024-03-02T16:11:05;100858.25;;;12.15;76.59
46045;BME280;31781;54.094;13.428;2024-03-02T16:17:08;100858.25;;;12.09;76.54
46045;BME280;31781;54.094;13.428;2024-03-02T16:23:11;100865.44;;;11.97;76.42
46045;BME280;31781;54.094;13.428;2024-03-02T16:29:14;100867.78;;;11.87;76.33
46045;BME280;31781;54.094;13.428;2024-03-02T16:35:19;100874.97;;;11.75;76.16
46045;BME280;31781;54.094;13.428;2024-03-02T16:41:22;100882.69;;;11.64;76.67
46045;BME280;31781;54.094;13.428;2024-03-02T16:47:24;100874.53;;;11.51;76.79
46045;BME280;31781;54.094;13.428;2024-03-02T16:53:27;100889.22;;;11.44;77.20
46045;BME280;31781;54.094;13.428;2024-03-02T16:59:29;100886.94;;;11.34;76.75
46045;BME280;31781;54.094;13.428;2024-03-02T17:05:30;100890.91;;;11.25;77.19
46045;BME280;31781;54.094;13.428;2024-03-02T17:11:33;100889.44;;;11.16;77.63
46045;BME280;31781;54.094;13.428;2024-03-02T17:17:35;100896.75;;;11.09;77.79
46045;BME280;31781;54.094;13.428;2024-03-02T17:23:37;100899.06;;;10.99;78.00
46045;BME280;31781;54.094;13.428;2024-03-02T17:29:40;100908.69;;;10.95;78.17
46045;BME280;31781;54.094;13.428;2024-03-02T17:35:41;100909.53;;;10.89;78.35
46045;BME280;31781;54.094;13.428;2024-03-02T17:41:43;100914.97;;;10.82;79.02
46045;BME280;31781;54.094;13.428;2024-03-02T17:47:46;100905.97;;;10.75;78.99
46045;BME280;31781;54.094;13.428;2024-03-02T17:53:48;100912.19;;;10.69;79.48
46045;BME280;31781;54.094;13.428;2024-03-02T17:59:49;100916.38;;;10.65;79.63
46045;BME280;31781;54.094;13.428;2024-03-02T18:05:52;100923.50;;;10.59;79.69
46045;BME280;31781;54.094;13.428;2024-03-02T18:11:55;100916.78;;;10.55;79.39
46045;BME280;31781;54.094;13.428;2024-03-02T18:17:56;100920.34;;;10.49;79.49
46045;BME280;31781;54.094;13.428;2024-03-02T18:23:59;100927.59;;;10.42;78.62
46045;BME280;31781;54.094;13.428;2024-03-02T18:30:01;100933.25;;;10.34;79.14
46045;BME280;31781;54.094;13.428;2024-03-02T18:36:04;100935.91;;;10.27;78.71
46045;BME280;31781;54.094;13.428;2024-03-02T18:42:08;100942.56;;;10.18;79.31
46045;BME280;31781;54.094;13.428;2024-03-02T18:48:09;100941.69;;;10.11;79.72
46045;BME280;31781;54.094;13.428;2024-03-02T18:54:11;100942.69;;;10.04;79.70
46045;BME280;31781;54.094;13.428;2024-03-02T19:00:15;100937.84;;;9.99;79.95
46045;BME280;31781;54.094;13.428;2024-03-02T19:06:17;100943.03;;;9.94;79.84
46045;BME280;31781;54.094;13.428;2024-03-02T19:12:19;100948.25;;;9.89;79.79
46045;BME280;31781;54.094;13.428;2024-03-02T19:18:22;100950.28;;;9.87;79.87
46045;BME280;31781;54.094;13.428;2024-03-02T19:24:24;100942.09;;;9.81;80.02
46045;BME280;31781;54.094;13.428;2024-03-02T19:30:25;100950.47;;;9.79;80.02
46045;BME280;31781;54.094;13.428;2024-03-02T19:36:29;100932.06;;;9.74;80.27
46045;BME280;31781;54.094;13.428;2024-03-02T19:42:31;100935.78;;;9.73;79.74
46045;BME280;31781;54.094;13.428;2024-03-02T19:48:32;100942.47;;;9.71;79.78
46045;BME280;31781;54.094;13.428;2024-03-02T19:54:35;100936.78;;;9.66;79.62
46045;BME280;31781;54.094;13.428;2024-03-02T20:00:37;100932.78;;;9.62;79.66
46045;BME280;31781;54.094;13.428;2024-03-02T20:06:39;100939.03;;;9.56;79.47
46045;BME280;31781;54.094;13.428;2024-03-02T20:12:42;100938.31;;;9.47;79.78
46045;BME280;31781;54.094;13.428;2024-03-02T20:18:44;100934.09;;;9.38;79.95
46045;BME280;31781;54.094;13.428;2024-03-02T20:24:46;100917.97;;;9.37;80.55
46045;BME280;31781;54.094;13.428;2024-03-02T20:30:49;100930.94;;;9.35;80.32
46045;BME280;31781;54.094;13.428;2024-03-02T20:36:51;100933.38;;;9.29;80.70
46045;BME280;31781;54.094;13.428;2024-03-02T20:42:53;100933.56;;;9.28;80.73
46045;BME280;31781;54.094;13.428;2024-03-02T20:48:56;100932.09;;;9.25;81.55
46045;BME280;31781;54.094;13.428;2024-03-02T20:54:58;100934.63;;;9.27;81.06
46045;BME280;31781;54.094;13.428;2024-03-02T21:01:00;100931.25;;;9.25;81.72
46045;BME280;31781;54.094;13.428;2024-03-02T21:07:03;100938.38;;;9.26;81.58
46045;BME280;31781;54.094;13.428;2024-03-02T21:13:05;100935.19;;;9.22;81.99
46045;BME280;31781;54.094;13.428;2024-03-02T21:19:07;100938.53;;;9.24;82.33
46045;BME280;31781;54.094;13.428;2024-03-02T21:25:11;100935.44;;;9.27;82.44
46045;BME280;31781;54.094;13.428;2024-03-02T21:31:14;100939.66;;;9.30;82.91
46045;BME280;31781;54.094;13.428;2024-03-02T21:37:16;100935.50;;;9.34;83.33
46045;BME280;31781;54.094;13.428;2024-03-02T21:43:21;100946.81;;;9.38;83.21
46045;BME280;31781;54.094;13.428;2024-03-02T21:49:23;100933.69;;;9.41;83.42
46045;BME280;31781;54.094;13.428;2024-03-02T21:55:25;100917.00;;;9.44;84.35
46045;BME280;31781;54.094;13.428;2024-03-02T22:01:28;100931.47;;;9.51;84.47
46045;BME280;31781;54.094;13.428;2024-03-02T22:07:30;100930.44;;;9.52;84.46
46045;BME280;31781;54.094;13.428;2024-03-02T22:13:32;100924.19;;;9.58;84.43
46045;BME280;31781;54.094;13.428;2024-03-02T22:19:36;100925.47;;;9.62;84.28
46045;BME280;31781;54.094;13.428;2024-03-02T22:25:38;100922.56;;;9.64;84.55
46045;BME280;31781;54.094;13.428;2024-03-02T22:31:39;100925.91;;;9.66;84.07
46045;BME280;31781;54.094;13.428;2024-03-02T22:37:43;100923.22;;;9.66;84.49
46045;BME280;31781;54.094;13.428;2024-03-02T22:43:45;100924.50;;;9.70;84.13
46045;BME280;31781;54.094;13.428;2024-03-02T22:49:47;100920.75;;;9.71;84.21
46045;BME280;31781;54.094;13.428;2024-03-02T22:55:51;100906.31;;;9.70;84.32
46045;BME280;31781;54.094;13.428;2024-03-02T23:01:53;100909.03;;;9.70;83.71
46045;BME280;31781;54.094;13.428;2024-03-02T23:07:56;100914.25;;;9.72;84.05
46045;BME280;31781;54.094;13.428;2024-03-02T23:13:59;100921.19;;;9.74;83.75
46045;BME280;31781;54.094;13.428;2024-03-02T23:20:01;100912.19;;;9.74;83.52
46045;BME280;31781;54.094;13.428;2024-03-02T23:26:03;100908.44;;;9.75;83.92
46045;BME280;31781;54.094;13.428;2024-03-02T23:32:07;100912.81;;;9.76;83.92
46045;BME280;31781;54.094;13.428;2024-03-02T23:38:09;100910.75;;;9.78;83.56
46045;BME280;31781;54.094;13.428;2024-03-02T23:44:11;100903.22;;;9.80;83.37
46045;BME280;31781;54.094;13.428;2024-03-02T23:50:14;100906.78;;;9.81;83.92
46045;BME280;31781;54.094;13.428;2024-03-02T23:56:16;100906.78;;;9.81;83.91
